Time;durP1;ratioP1;P1;durP2;ratioP2;P2;SDS_P1;SDS_P2;PMS_P1;PMS_P2;Temp;Humidity;BMP_temperature;BMP_pressure;BME280_temperature;BME280_humidity;BME280_pressure;Samples;Min_cycle;Max_cycle;Signal;HPM_P1;HPM_P2
2022/04/14 00:02:26;;;;;;;;;11.33;8.67;;;25.99;98206.61;;;;116781;1197;25202;-57
2022/04/14 00:04:54;;;;;;;;;13.33;11.00;;;25.98;98208.25;;;;116736;1197;25961;-56
2022/04/14 00:07:23;;;;;;;;;12.25;10.25;;;25.99;98207.41;;;;116742;1197;24758;-61
2022/04/14 00:09:51;;;;;;;;;12.50;11.25;;;25.99;98207.73;;;;116823;1196;25150;-52
2022/04/14 00:12:19;;;;;;;;;14.33;10.33;;;25.97;98202.23;;;;116723;1197;25437;-53
2022/04/14 00:14:47;;;;;;;;;10.00;9.00;;;25.95;98196.52;;;;116741;1197;25629;-53
2022/04/14 00:17:14;;;;;;;;;13.67;9.33;;;25.94;98200.25;;;;116748;1196;25568;-60
2022/04/14 00:19:43;;;;;;;;;11.75;11.00;;;25.95;98206.31;;;;116691;1196;24900;-53
2022/04/14 00:22:11;;;;;;;;;12.67;11.00;;;25.95;98201.28;;;;116647;1197;25302;-59
2022/04/14 00:24:38;;;;;;;;;9.00;8.67;;;25.94;98202.37;;;;116751;1197;25554;-52
2022/04/14 00:27:06;;;;;;;;;12.00;10.67;;;25.91;98196.63;;;;116754;1197;25602;-55
2022/04/14 00:29:34;;;;;;;;;9.33;9.33;;;25.92;98191.95;;;;116738;1197;25342;-57
2022/04/14 00:32:02;;;;;;;;;14.00;10.50;;;25.89;98189.96;;;;116753;1197;25457;-58
2022/04/14 00:34:30;;;;;;;;;11.67;10.00;;;25.88;98188.79;;;;116780;1197;25300;-59
2022/04/14 00:36:58;;;;;;;;;8.50;8.50;;;25.88;98180.57;;;;116748;1198;25462;-53
2022/04/14 00:39:26;;;;;;;;;12.33;9.67;;;25.89;98178.97;;;;116735;1197;25737;-53
2022/04/14 00:41:54;;;;;;;;;16.00;12.67;;;25.87;98180.61;;;;116652;1196;25632;-57
2022/04/14 00:44:22;;;;;;;;;16.00;11.67;;;25.88;98185.19;;;;116531;1197;25793;-62
2022/04/14 00:46:50;;;;;;;;;11.25;8.75;;;25.90;98189.04;;;;116577;1196;25506;-58
2022/04/14 00:49:19;;;;;;;;;8.33;8.00;;;25.88;98186.42;;;;116532;1196;24998;-56
2022/04/14 00:51:48;;;;;;;;;11.67;10.67;;;25.90;98190.14;;;;116485;1196;24752;-62
2022/04/14 00:54:16;;;;;;;;;16.50;11.50;;;25.88;98190.68;;;;116710;1197;25224;-61
2022/04/14 00:56:44;;;;;;;;;12.00;11.00;;;25.87;98188.54;;;;116738;1197;25147;-61
2022/04/14 00:59:12;;;;;;;;;9.00;6.67;;;25.86;98185.33;;;;116706;1197;26344;-57
2022/04/14 01:01:40;;;;;;;;;13.00;10.75;;;25.85;98175.85;;;;116739;1198;25154;-56
2022/04/14 01:04:11;;;;;;;;;8.50;8.50;;;25.83;98172.73;;;;116785;1197;25409;-55
2022/04/14 01:06:39;;;;;;;;;7.50;7.25;;;25.84;98177.48;;;;116778;1196;26408;-53
2022/04/14 01:09:18;;;;;;;;;14.25;10.50;;;25.83;98177.55;;;;116729;1197;25030;-54
2022/04/14 01:11:55;;;;;;;;;9.00;7.25;;;25.83;98172.02;;;;116729;1197;24853;-54
2022/04/14 01:14:27;;;;;;;;;11.50;10.50;;;25.84;98170.82;;;;116753;1197;25968;-59
2022/04/14 01:16:57;;;;;;;;;8.25;6.00;;;25.80;98169.74;;;;116753;1196;24761;-60
2022/04/14 01:19:26;;;;;;;;;10.00;9.50;;;25.80;98170.63;;;;116759;1198;24804;-50
2022/04/14 01:22:07;;;;;;;;;8.67;6.33;;;25.79;98172.23;;;;116737;1196;25509;-55
2022/04/14 01:24:35;;;;;;;;;11.67;11.33;;;25.81;98171.86;;;;116728;1197;25463;-51
2022/04/14 01:27:03;;;;;;;;;10.33;9.67;;;25.78;98171.26;;;;116727;1196;26107;-61
2022/04/14 01:29:31;;;;;;;;;10.00;9.00;;;25.77;98162.05;;;;116798;1197;25343;-51
2022/04/14 01:32:03;;;;;;;;;10.50;9.25;;;25.76;98158.61;;;;116730;1198;25669;-54
2022/04/14 01:34:31;;;;;;;;;13.50;12.00;;;25.75;98157.27;;;;116755;1197;25544;-55
2022/04/14 01:37:02;;;;;;;;;12.00;10.50;;;25.74;98157.77;;;;116708;1197;25184;-60
2022/04/14 01:39:30;;;;;;;;;10.67;9.33;;;25.73;98157.51;;;;116737;1197;25635;-56
2022/04/14 01:41:58;;;;;;;;;12.00;11.00;;;25.74;98153.93;;;;116712;1197;25566;-55
2022/04/14 01:44:26;;;;;;;;;10.25;10.25;;;25.73;98154.34;;;;116714;1196;25000;-55
2022/04/14 01:46:54;;;;;;;;;13.33;11.33;;;25.71;98158.09;;;;116770;1197;25267;-59
2022/04/14 01:49:22;;;;;;;;;13.00;12.00;;;25.70;98153.59;;;;116734;1197;25484;-58
2022/04/14 01:51:50;;;;;;;;;11.00;10.00;;;25.69;98161.20;;;;116766;1196;25181;-56
2022/04/14 01:54:17;;;;;;;;;11.50;8.00;;;25.69;98167.42;;;;116790;1197;25228;-53
2022/04/14 01:56:46;;;;;;;;;7.75;7.50;;;25.67;98166.66;;;;116766;1196;24985;-53
2022/04/14 01:59:13;;;;;;;;;10.00;10.00;;;25.68;98167.77;;;;116793;1195;24956;-59
2022/04/14 02:01:41;;;;;;;;;9.00;9.00;;;25.65;98173.44;;;;116754;1197;26023;-55
2022/04/14 02:04:10;;;;;;;;;8.00;6.25;;;25.64;98178.31;;;;116774;1196;25664;-54
2022/04/14 02:06:37;;;;;;;;;10.67;9.67;;;25.63;98177.15;;;;116782;1196;24935;-59
2022/04/14 02:09:05;;;;;;;;;7.33;7.33;;;25.64;98180.33;;;;116756;1196;25786;-52
2022/04/14 02:11:33;;;;;;;;;8.67;7.33;;;25.64;98179.59;;;;116785;1196;26062;-50
2022/04/14 02:14:02;;;;;;;;;8.67;7.00;;;25.64;98175.30;;;;116837;1197;25514;-55
2022/04/14 02:16:30;;;;;;;;;11.50;10.50;;;25.65;98178.90;;;;116824;1195;24850;-56
2022/04/14 02:18:58;;;;;;;;;9.33;8.33;;;25.63;98180.80;;;;116868;1196;25142;-56
2022/04/14 02:21:25;;;;;;;;;10.25;9.50;;;25.66;98182.91;;;;116774;1198;25671;-58
2022/04/14 02:23:53;;;;;;;;;10.00;9.00;;;25.67;98179.67;;;;116859;1196;25962;-61
2022/04/14 02:26:21;;;;;;;;;10.00;8.00;;;25.71;98179.12;;;;117145;1197;25569;-54
2022/04/14 02:28:49;;;;;;;;;8.00;8.00;;;25.84;98186.97;;;;116946;1198;25443;-51
2022/04/14 02:31:17;;;;;;;;;11.50;9.00;;;25.92;98188.88;;;;116866;1196;25819;-53
2022/04/14 02:33:45;;;;;;;;;13.00;10.00;;;25.87;98191.31;;;;116946;1197;25229;-56
2022/04/14 02:36:13;;;;;;;;;8.25;8.25;;;25.83;98188.13;;;;116753;1198;25092;-52
2022/04/14 02:38:43;;;;;;;;;8.67;8.67;;;25.79;98183.98;;;;116825;1197;25685;-56
2022/04/14 02:41:11;;;;;;;;;8.00;7.33;;;25.76;98189.54;;;;116965;1198;25294;-54
2022/04/14 02:43:39;;;;;;;;;10.00;9.50;;;25.80;98194.64;;;;116857;1198;25326;-59
2022/04/14 02:46:07;;;;;;;;;9.75;9.75;;;25.75;98199.14;;;;116784;1197;25780;-54
2022/04/14 02:48:35;;;;;;;;;7.50;6.50;;;25.65;98199.97;;;;116884;1196;25043;-55
2022/04/14 02:51:03;;;;;;;;;10.33;10.00;;;25.61;98197.70;;;;116782;1196;25216;-56
2022/04/14 02:53:31;;;;;;;;;9.33;7.67;;;25.56;98196.05;;;;116790;1197;25621;-56
2022/04/14 02:55:59;;;;;;;;;11.50;9.00;;;25.54;98200.34;;;;116794;1197;25059;-53
2022/04/14 02:58:28;;;;;;;;;13.25;11.00;;;25.50;98199.96;;;;117136;1196;25439;-62
2022/04/14 03:00:56;;;;;;;;;11.25;10.75;;;25.64;98196.20;;;;116791;1197;25713;-60
2022/04/14 03:03:26;;;;;;;;;11.00;8.00;;;25.58;98192.35;;;;116619;1198;25190;-59
2022/04/14 03:05:54;;;;;;;;;13.00;9.00;;;25.52;98192.41;;;;116775;1197;24772;-62
2022/04/14 03:08:22;;;;;;;;;13.25;9.50;;;25.52;98197.66;;;;116729;1198;24839;-60
2022/04/14 03:10:50;;;;;;;;;12.33;9.67;;;25.47;98197.46;;;;116753;1196;24788;-59
2022/04/14 03:13:20;;;;;;;;;11.00;8.00;;;25.44;98193.53;;;;116745;1197;25206;-59
2022/04/14 03:15:49;;;;;;;;;11.00;9.00;;;25.43;98191.23;;;;116771;1196;25138;-55
2022/04/14 03:18:17;;;;;;;;;9.00;9.00;;;25.38;98191.30;;;;116718;1196;25362;-61
2022/04/14 03:20:47;;;;;;;;;7.67;7.33;;;25.40;98181.48;;;;116726;1198;25610;-52
2022/04/14 03:23:18;;;;;;;;;9.33;9.33;;;25.43;98180.23;;;;116714;1197;25606;-57
2022/04/14 03:25:45;;;;;;;;;11.50;8.00;;;25.44;98180.28;;;;116737;1197;25178;-53
2022/04/14 03:28:16;;;;;;;;;10.67;7.67;;;25.44;98179.61;;;;116816;1196;25583;-55
2022/04/14 03:30:46;;;;;;;;;10.00;9.50;;;25.48;98173.88;;;;116813;1198;24848;-57
2022/04/14 03:33:17;;;;;;;;;9.00;9.00;;;25.48;98181.20;;;;116798;1197;25014;-57
2022/04/14 03:35:46;;;;;;;;;11.75;9.25;;;25.51;98182.33;;;;116830;1197;25074;-58
2022/04/14 03:38:14;;;;;;;;;8.00;7.50;;;25.50;98181.63;;;;116784;1197;25283;-56
2022/04/14 03:41:05;;;;;;;;;12.00;10.00;;;25.53;98178.23;;;;116732;1198;25202;-54
2022/04/14 03:43:37;;;;;;;;;12.00;9.33;;;25.59;98179.30;;;;116517;1196;26188;-53
2022/04/14 03:46:05;;;;;;;;;7.00;6.00;;;25.54;98183.48;;;;116593;1197;25025;-53
2022/04/14 03:48:33;;;;;;;;;10.50;7.50;;;25.53;98184.16;;;;116493;1196;25039;-51
2022/04/14 03:51:04;;;;;;;;;12.00;8.00;;;25.46;98181.13;;;;116627;1196;25019;-60
2022/04/14 03:53:32;;;;;;;;;11.00;9.00;;;25.46;98182.92;;;;116723;1197;26298;-54
2022/04/14 03:56:00;;;;;;;;;7.75;7.75;;;25.42;98180.25;;;;116688;1197;25314;-57
2022/04/14 03:58:28;;;;;;;;;8.50;6.50;;;25.44;98176.03;;;;116735;1197;25358;-51
2022/04/14 04:00:59;;;;;;;;;7.00;5.75;;;25.46;98172.88;;;;116700;1196;24977;-54
2022/04/14 04:03:29;;;;;;;;;8.67;8.00;;;25.45;98172.65;;;;116716;1197;25878;-53
2022/04/14 04:05:57;;;;;;;;;12.67;7.33;;;25.41;98176.59;;;;116684;1197;25512;-53
2022/04/14 04:08:25;;;;;;;;;11.67;10.33;;;25.41;98174.96;;;;116937;1196;24756;-62
2022/04/14 04:10:55;;;;;;;;;14.25;10.25;;;25.55;98179.91;;;;116770;1197;26356;-56
2022/04/14 04:13:27;;;;;;;;;14.00;11.50;;;25.54;98177.84;;;;116768;1197;25497;-57
2022/04/14 04:15:59;;;;;;;;;14.00;11.00;;;25.57;98177.34;;;;117025;1196;24967;-57
2022/04/14 04:18:33;;;;;;;;;19.00;12.75;;;25.67;98182.34;;;;116834;1196;25626;-55
2022/04/14 04:21:04;;;;;;;;;15.00;12.00;;;25.66;98188.48;;;;116765;1197;25227;-55
2022/04/14 04:23:32;;;;;;;;;17.75;12.25;;;25.57;98189.96;;;;116924;1197;24830;-53
2022/04/14 04:25:59;;;;;;;;;18.00;13.25;;;25.58;98191.47;;;;116799;1196;25472;-55
2022/04/14 04:28:30;;;;;;;;;17.00;12.00;;;25.57;98191.32;;;;116964;1197;24944;-63
2022/04/14 04:30:58;;;;;;;;;15.25;11.00;;;25.56;98193.95;;;;116944;1197;26025;-51
2022/04/14 04:33:26;;;;;;;;;15.33;13.00;;;25.55;98197.21;;;;116897;1197;24944;-58
2022/04/14 04:35:54;;;;;;;;;17.67;12.67;;;25.51;98199.54;;;;116641;1196;24915;-58
2022/04/14 04:38:21;;;;;;;;;14.25;13.00;;;25.45;98204.30;;;;116635;1197;25392;-56
2022/04/14 04:40:49;;;;;;;;;23.33;13.33;;;25.36;98203.95;;;;116673;1198;24948;-52
2022/04/14 04:43:17;;;;;;;;;16.50;15.50;;;25.31;98206.17;;;;116772;1197;25095;-53
2022/04/14 04:45:45;;;;;;;;;20.67;16.00;;;25.27;98208.94;;;;116632;1197;25682;-56
2022/04/14 04:48:13;;;;;;;;;19.67;15.33;;;25.17;98208.67;;;;116793;1197;25496;-54
2022/04/14 04:50:40;;;;;;;;;20.67;16.67;;;25.02;98204.65;;;;116962;1196;25157;-54
2022/04/14 04:53:08;;;;;;;;;19.00;16.33;;;25.12;98203.16;;;;116930;1198;24930;-57
2022/04/14 04:55:39;;;;;;;;;16.00;14.00;;;24.96;98204.55;;;;116834;1196;25130;-55
2022/04/14 04:58:07;;;;;;;;;22.67;15.67;;;24.84;98200.70;;;;116816;1197;25088;-56
2022/04/14 05:00:35;;;;;;;;;16.67;13.67;;;24.61;98203.54;;;;116759;1197;24969;-51
2022/04/14 05:03:10;;;;;;;;;16.67;15.00;;;24.59;98202.85;;;;116722;1198;25583;-57
2022/04/14 05:05:38;;;;;;;;;17.50;15.25;;;24.52;98204.85;;;;116415;1198;25711;-50
2022/04/14 05:08:07;;;;;;;;;16.00;15.00;;;24.45;98203.99;;;;116711;1197;24972;-57
2022/04/14 05:10:35;;;;;;;;;18.67;16.67;;;24.40;98203.61;;;;116812;1198;25360;-50
2022/04/14 05:13:04;;;;;;;;;20.00;14.00;;;24.35;98203.27;;;;116702;1198;25020;-54
2022/04/14 05:15:32;;;;;;;;;15.00;15.00;;;24.25;98209.06;;;;116877;1196;25138;-58
2022/04/14 05:18:00;;;;;;;;;16.33;16.33;;;24.22;98210.27;;;;116700;1198;25413;-52
2022/04/14 05:20:28;;;;;;;;;17.00;16.00;;;24.16;98210.27;;;;116695;1197;25951;-58
2022/04/14 05:22:56;;;;;;;;;15.67;13.33;;;24.08;98206.35;;;;116610;1198;24869;-55
2022/04/14 05:25:24;;;;;;;;;20.00;15.67;;;24.04;98202.25;;;;116696;1197;25460;-56
2022/04/14 05:27:52;;;;;;;;;17.00;14.00;;;23.95;98199.74;;;;116787;1196;25173;-51
2022/04/14 05:30:20;;;;;;;;;18.00;14.00;;;23.94;98201.25;;;;116740;1197;25497;-57
2022/04/14 05:32:48;;;;;;;;;19.00;19.00;;;23.93;98201.00;;;;116681;1198;25120;-53
2022/04/14 05:35:16;;;;;;;;;17.00;14.50;;;23.81;98202.54;;;;116839;1197;26198;-57
2022/04/14 05:37:44;;;;;;;;;22.67;17.67;;;23.80;98200.94;;;;116754;1198;24960;-56
2022/04/14 05:40:12;;;;;;;;;19.33;16.00;;;23.77;98202.83;;;;116709;1196;25109;-55
2022/04/14 05:42:46;;;;;;;;;18.00;14.33;;;23.69;98213.16;;;;116712;1197;25862;-55
2022/04/14 05:45:14;;;;;;;;;14.67;14.33;;;23.63;98218.36;;;;116757;1196;25656;-58
2022/04/14 05:47:42;;;;;;;;;16.00;14.00;;;23.56;98223.95;;;;116817;1197;24918;-59
2022/04/14 05:50:09;;;;;;;;;14.00;12.00;;;23.54;98223.34;;;;116774;1197;25111;-51
2022/04/14 05:52:38;;;;;;;;;17.67;16.33;;;23.51;98223.08;;;;116696;1197;24730;-56
2022/04/14 05:55:06;;;;;;;;;17.50;14.50;;;23.45;98223.23;;;;116752;1197;25575;-53
2022/04/14 05:57:34;;;;;;;;;19.00;18.00;;;23.45;98228.13;;;;116769;1197;25080;-57
2022/04/14 06:00:05;;;;;;;;;16.33;13.67;;;23.39;98232.64;;;;116827;1196;25456;-55
2022/04/14 06:02:33;;;;;;;;;15.00;12.00;;;23.40;98234.70;;;;116886;1197;25008;-59
2022/04/14 06:05:01;;;;;;;;;18.50;14.50;;;23.41;98237.42;;;;116876;1196;25998;-53
2022/04/14 06:07:28;;;;;;;;;18.50;14.00;;;23.41;98237.52;;;;116667;1198;24971;-58
2022/04/14 06:09:56;;;;;;;;;13.50;11.00;;;23.39;98234.00;;;;116745;1196;25157;-54
2022/04/14 06:12:24;;;;;;;;;16.67;15.33;;;23.35;98236.45;;;;116758;1197;25070;-58
2022/04/14 06:14:52;;;;;;;;;15.67;12.00;;;23.34;98236.85;;;;116746;1197;24784;-53
2022/04/14 06:17:19;;;;;;;;;13.67;12.00;;;23.31;98234.19;;;;116757;1197;25752;-50
2022/04/14 06:19:47;;;;;;;;;17.00;15.00;;;23.31;98233.81;;;;116706;1196;24966;-53
2022/04/14 06:22:15;;;;;;;;;21.00;18.00;;;23.29;98232.60;;;;116794;1197;25988;-53
2022/04/14 06:24:43;;;;;;;;;19.33;16.33;;;23.34;98232.25;;;;116734;1196;25262;-58
2022/04/14 06:27:11;;;;;;;;;17.00;14.33;;;23.36;98232.48;;;;117039;1197;25130;-58
2022/04/14 06:29:39;;;;;;;;;17.50;14.50;;;23.48;98232.52;;;;117118;1197;26464;-53
2022/04/14 06:32:07;;;;;;;;;18.00;15.00;;;23.64;98235.86;;;;116581;1196;25261;-60
2022/04/14 06:34:40;;;;;;;;;16.33;14.33;;;23.66;98239.55;;;;116711;1196;25669;-54
2022/04/14 06:37:08;;;;;;;;;21.67;17.33;;;23.72;98238.88;;;;116624;1197;25548;-53
2022/04/14 06:39:36;;;;;;;;;11.50;6.00;;;23.72;98234.84;;;;116657;1197;25111;-52
2022/04/14 06:42:07;;;;;;;;;21.50;16.00;;;23.64;98231.55;;;;116709;1196;25683;-57
2022/04/14 06:44:35;;;;;;;;;16.67;16.33;;;23.68;98234.86;;;;116606;1197;25378;-55
2022/04/14 06:47:07;;;;;;;;;16.00;12.50;;;23.70;98232.45;;;;116755;1197;25666;-56
2022/04/14 06:49:34;;;;;;;;;13.67;12.67;;;23.84;98226.25;;;;116918;1198;24944;-57
2022/04/14 06:52:03;;;;;;;;;15.25;13.50;;;24.05;98228.50;;;;117037;1196;25461;-57
2022/04/14 06:54:31;;;;;;;;;16.00;10.00;;;24.27;98231.58;;;;116909;1196;25716;-56
2022/04/14 06:57:06;;;;;;;;;14.00;14.00;;;24.38;98232.23;;;;116832;1196;26956;-56
2022/04/14 06:59:37;;;;;;;;;15.00;12.00;;;24.36;98234.41;;;;116829;1198;25350;-53
2022/04/14 07:02:07;;;;;;;;;14.00;12.50;;;24.34;98235.67;;;;116917;1197;25007;-53
2022/04/14 07:04:35;;;;;;;;;18.33;13.67;;;24.49;98238.80;;;;117052;1197;25506;-55
2022/04/14 07:07:03;;;;;;;;;8.50;7.00;;;24.63;98233.12;;;;116783;1198;25221;-58
2022/04/14 07:09:33;;;;;;;;;14.50;11.00;;;24.74;98234.83;;;;116749;1197;25393;-56
2022/04/14 07:12:07;;;;;;;;;13.00;10.00;;;24.87;98233.45;;;;116673;1198;24774;-52
2022/04/14 07:14:34;;;;;;;;;17.00;13.33;;;25.02;98234.35;;;;116562;1197;25157;-53
2022/04/14 07:17:02;;;;;;;;;12.00;10.00;;;25.05;98233.45;;;;116953;1196;25196;-52
2022/04/14 07:19:30;;;;;;;;;14.33;13.33;;;25.24;98237.05;;;;116773;1196;25037;-54
2022/04/14 07:21:58;;;;;;;;;11.67;10.67;;;25.33;98234.86;;;;116878;1196;25682;-55
2022/04/14 07:24:26;;;;;;;;;12.50;11.00;;;25.37;98230.95;;;;116802;1197;25556;-55
2022/04/14 07:26:54;;;;;;;;;15.67;12.00;;;25.40;98232.43;;;;116743;1197;25142;-55
2022/04/14 07:29:24;;;;;;;;;12.00;11.00;;;25.41;98231.00;;;;117043;1195;25172;-55
2022/04/14 07:31:54;;;;;;;;;9.00;9.00;;;25.52;98230.11;;;;116775;1197;24968;-54
2022/04/14 07:34:23;;;;;;;;;14.75;12.25;;;25.54;98227.66;;;;116843;1196;25777;-54
2022/04/14 07:36:52;;;;;;;;;14.33;12.00;;;25.56;98229.73;;;;116580;1198;25667;-53
2022/04/14 07:39:20;;;;;;;;;18.50;12.00;;;25.59;98232.98;;;;116501;1196;25606;-52
2022/04/14 07:41:47;;;;;;;;;11.00;9.33;;;25.59;98233.02;;;;116707;1197;26249;-53
2022/04/14 07:44:15;;;;;;;;;16.33;13.00;;;25.59;98231.95;;;;116772;1197;26448;-53
2022/04/14 07:46:47;;;;;;;;;14.33;11.00;;;25.61;98232.34;;;;116785;1197;25014;-53
2022/04/14 07:49:15;;;;;;;;;8.67;7.67;;;25.63;98231.02;;;;116709;1197;24872;-55
2022/04/14 07:51:43;;;;;;;;;12.00;11.33;;;25.66;98227.92;;;;116715;1197;25680;-55
2022/04/14 07:54:11;;;;;;;;;10.25;9.25;;;25.65;98232.28;;;;116799;1197;24849;-54
2022/04/14 07:56:39;;;;;;;;;12.25;8.50;;;25.72;98229.18;;;;116748;1197;25447;-55
2022/04/14 07:59:08;;;;;;;;;15.67;14.67;;;25.76;98228.63;;;;116818;1197;25495;-51
2022/04/14 08:01:35;;;;;;;;;12.33;8.67;;;25.82;98228.68;;;;116723;1197;26733;-53
2022/04/14 08:04:04;;;;;;;;;12.25;9.50;;;25.82;98227.66;;;;116843;1198;26129;-52
2022/04/14 08:06:33;;;;;;;;;12.25;11.25;;;25.82;98226.82;;;;116831;1197;26399;-54
2022/04/14 08:09:04;;;;;;;;;15.67;12.67;;;25.87;98225.31;;;;116760;1196;24755;-53
2022/04/14 08:11:34;;;;;;;;;12.50;11.75;;;25.93;98227.36;;;;116725;1196;25034;-52
2022/04/14 08:14:04;;;;;;;;;16.25;12.75;;;25.94;98229.27;;;;116805;1197;25051;-61
2022/04/14 08:16:35;;;;;;;;;14.33;11.67;;;26.58;98222.85;;;;116771;1197;25451;-60
2022/04/14 08:19:03;;;;;;;;;14.50;9.25;;;27.61;98225.45;;;;116689;1196;25307;-60
2022/04/14 08:21:32;;;;;;;;;12.75;9.50;;;28.30;98225.73;;;;116717;1197;25706;-71
2022/04/14 08:24:02;;;;;;;;;15.50;10.50;;;28.70;98223.42;;;;116731;1197;25225;-69
2022/04/14 08:26:30;;;;;;;;;12.67;9.67;;;29.05;98224.27;;;;116741;1197;26014;-65
2022/04/14 08:29:00;;;;;;;;;12.67;12.67;;;29.42;98223.19;;;;116623;1197;25632;-54
2022/04/14 08:31:29;;;;;;;;;11.67;10.00;;;29.55;98222.79;;;;116815;1198;24977;-57
2022/04/14 08:33:58;;;;;;;;;11.75;10.00;;;28.95;98221.63;;;;116489;1198;24937;-54
2022/04/14 08:36:26;;;;;;;;;11.67;9.33;;;28.42;98224.92;;;;116716;1196;24987;-51
2022/04/14 08:38:54;;;;;;;;;15.00;11.50;;;27.99;98221.45;;;;116748;1196;25331;-54
2022/04/14 08:41:24;;;;;;;;;12.00;8.67;;;27.66;98219.61;;;;116513;1198;25391;-50
2022/04/14 08:44:02;;;;;;;;;13.00;9.33;;;27.42;98222.83;;;;116761;1197;25153;-53
2022/04/14 08:46:32;;;;;;;;;13.67;9.33;;;27.25;98218.65;;;;116797;1196;25117;-51
2022/04/14 08:49:00;;;;;;;;;16.00;11.75;;;27.09;98214.48;;;;116703;1197;25538;-49
2022/04/14 08:51:33;;;;;;;;;12.00;9.50;;;26.95;98212.47;;;;116718;1197;25015;-50
2022/04/14 08:54:01;;;;;;;;;14.25;13.25;;;26.80;98210.51;;;;116766;1196;25291;-52
2022/04/14 08:56:32;;;;;;;;;11.00;10.00;;;26.73;98206.98;;;;116728;1198;24810;-55
2022/04/14 08:59:02;;;;;;;;;8.75;7.00;;;26.68;98205.31;;;;116766;1197;25244;-55
2022/04/14 09:01:33;;;;;;;;;16.50;13.25;;;26.63;98203.73;;;;116773;1197;25373;-55
2022/04/14 09:04:04;;;;;;;;;13.75;12.25;;;26.61;98201.00;;;;116620;1198;25730;-53
2022/04/14 09:06:35;;;;;;;;;12.33;11.33;;;26.63;98199.02;;;;116892;1197;25203;-53
2022/04/14 09:09:07;;;;;;;;;16.00;13.00;;;26.64;98203.66;;;;116911;1197;25232;-50
2022/04/14 09:11:35;;;;;;;;;17.00;15.00;;;26.63;98202.38;;;;116815;1197;25537;-48
2022/04/14 09:14:02;;;;;;;;;15.00;12.33;;;26.67;98200.52;;;;116628;1199;25101;-49
2022/04/14 09:16:32;;;;;;;;;13.00;10.00;;;26.65;98197.23;;;;116536;1198;25010;-49
2022/04/14 09:19:02;;;;;;;;;10.75;10.75;;;26.49;98196.86;;;;116938;1197;24869;-48
2022/04/14 09:21:31;;;;;;;;;8.67;8.00;;;26.48;98197.93;;;;116919;1198;25166;-48
2022/04/14 09:24:00;;;;;;;;;11.67;10.33;;;26.50;98194.51;;;;116913;1197;25447;-51
2022/04/14 09:26:28;;;;;;;;;11.00;10.00;;;26.46;98193.74;;;;116953;1198;24910;-52
2022/04/14 09:29:16;;;;;;;;;9.50;7.75;;;26.46;98193.99;;;;116858;1196;25306;-49
2022/04/14 09:31:47;;;;;;;;;12.67;11.00;;;26.52;98188.39;;;;116921;1197;25683;-48
2022/04/14 09:34:17;;;;;;;;;10.33;9.00;;;26.50;98184.77;;;;116905;1196;24918;-53
2022/04/14 09:37:11;;;;;;;;;14.50;8.50;;;26.48;98186.26;;;;116853;1198;25295;-52
2022/04/14 09:40:09;;;;;;;;;16.00;12.50;;;26.53;98181.09;;;;116777;1197;25109;-53
2022/04/14 09:42:43;;;;;;;;;12.25;10.00;;;26.62;98176.24;;;;116681;1197;25186;-50
2022/04/14 09:45:21;;;;;;;;;12.33;10.33;;;26.55;98176.95;;;;116788;1198;25500;-47
2022/04/14 09:48:10;;;;;;;;;11.25;8.50;;;26.45;98176.47;;;;116804;1196;26254;-47
2022/04/14 09:50:50;;;;;;;;;;;;;;;;;;;;;
2022/04/14 09:53:40;;;;;;;;;12.00;9.25;;;26.51;98180.54;;;;116769;1196;25521;-50
2022/04/14 09:56:08;;;;;;;;;14.33;10.33;;;26.42;98180.35;;;;116629;1197;25556;-48
2022/04/14 09:58:40;;;;;;;;;13.75;13.00;;;26.38;98180.02;;;;117104;1199;25304;-58
2022/04/14 10:01:18;;;;;;;;;17.25;14.75;;;26.46;98180.71;;;;117051;1198;25403;-58
2022/04/14 10:03:51;;;;;;;;;9.25;8.00;;;26.35;98183.70;;;;118248;1196;25232;-58
2022/04/14 10:06:22;;;;;;;;;13.00;11.00;;;26.73;98180.33;;;;117244;1196;25474;-54
2022/04/14 10:08:51;;;;;;;;;12.00;11.33;;;26.62;98176.62;;;;117035;1197;25092;-56
2022/04/14 10:11:29;;;;;;;;;16.50;10.50;;;26.43;98170.17;;;;116866;1197;25046;-54
2022/04/14 10:14:23;;;;;;;;;18.50;13.00;;;26.24;98168.38;;;;116976;1197;25243;-56
2022/04/14 10:16:54;;;;;;;;;17.25;14.00;;;26.21;98161.92;;;;116769;1197;24931;-61
2022/04/14 10:19:28;;;;;;;;;9.00;8.33;;;26.07;98161.77;;;;116904;1197;25604;-50
2022/04/14 10:21:56;;;;;;;;;12.00;10.00;;;26.00;98157.25;;;;116680;1197;24880;-60
2022/04/14 10:24:26;;;;;;;;;15.75;11.25;;;25.95;98158.30;;;;117172;1196;25288;-56
2022/04/14 10:26:54;;;;;;;;;14.00;11.00;;;25.99;98156.09;;;;116756;1197;25011;-54
2022/04/14 10:29:26;;;;;;;;;13.25;11.25;;;25.88;98150.92;;;;116705;1197;25957;-57
2022/04/14 10:31:58;;;;;;;;;12.50;11.00;;;25.86;98153.80;;;;116654;1198;25211;-57
2022/04/14 10:34:35;;;;;;;;;13.25;8.75;;;25.85;98149.56;;;;116661;1197;25410;-58
2022/04/14 10:37:15;;;;;;;;;16.67;14.67;;;25.83;98144.26;;;;117063;1197;24917;-60
2022/04/14 10:39:49;;;;;;;;;15.33;11.33;;;25.88;98150.16;;;;116749;1197;25587;-52
2022/04/14 10:42:24;;;;;;;;;15.50;13.25;;;25.80;98150.81;;;;116756;1197;25363;-58
2022/04/14 10:44:57;;;;;;;;;12.00;10.50;;;25.73;98149.23;;;;116758;1196;24976;-54
2022/04/14 10:47:58;;;;;;;;;14.67;13.00;;;25.68;98148.56;;;;116765;1196;24924;-57
2022/04/14 10:50:36;;;;;;;;;14.25;12.50;;;25.68;98142.64;;;;116778;1197;25078;-55
2022/04/14 10:53:11;;;;;;;;;14.00;12.50;;;25.63;98149.06;;;;116803;1196;25443;-57
2022/04/14 10:55:47;;;;;;;;;12.67;12.00;;;25.60;98147.08;;;;116774;1197;24798;-64
2022/04/14 10:58:27;;;;;;;;;16.00;11.00;;;25.58;98142.90;;;;116790;1198;24894;-51
2022/04/14 11:00:57;;;;;;;;;14.50;10.50;;;25.55;98143.23;;;;116764;1197;25452;-50
2022/04/14 11:03:45;;;;;;;;;13.75;10.25;;;25.53;98141.52;;;;116767;1197;25682;-50
2022/04/14 11:06:47;;;;;;;;;19.00;13.50;;;25.58;98141.94;;;;116776;1197;24853;-56
2022/04/14 11:09:38;;;;;;;;;14.50;13.00;;;25.60;98144.35;;;;116748;1197;25034;-57
2022/04/14 11:12:10;;;;;;;;;14.50;12.50;;;25.54;98138.33;;;;116746;1197;25732;-56
2022/04/14 11:15:04;;;;;;;;;15.00;11.75;;;25.51;98140.80;;;;116785;1196;25061;-53
2022/04/14 11:17:40;;;;;;;;;13.00;11.00;;;25.53;98140.04;;;;116765;1196;25216;-56
2022/04/14 11:20:16;;;;;;;;;12.50;11.00;;;25.50;98139.71;;;;116742;1197;26240;-58
2022/04/14 11:23:04;;;;;;;;;13.33;11.33;;;25.50;98134.48;;;;116802;1196;25441;-52
2022/04/14 11:25:41;;;;;;;;;13.25;12.00;;;25.50;98134.72;;;;116758;1197;25475;-59
2022/04/14 11:28:46;;;;;;;;;12.00;11.00;;;25.48;98136.39;;;;116800;1197;24811;-57
2022/04/14 11:31:18;;;;;;;;;14.75;11.00;;;25.59;98129.04;;;;116484;1197;24928;-59
2022/04/14 11:33:53;;;;;;;;;11.75;10.00;;;25.59;98127.11;;;;116808;1197;24798;-54
2022/04/14 11:36:41;;;;;;;;;13.50;11.50;;;25.55;98125.08;;;;116795;1197;25141;-56
2022/04/14 11:39:21;;;;;;;;;12.25;10.50;;;25.61;98124.11;;;;116771;1196;25198;-56
2022/04/14 11:41:58;;;;;;;;;14.67;11.67;;;25.63;98123.02;;;;116794;1197;25531;-61
2022/04/14 11:44:31;;;;;;;;;10.67;10.00;;;25.59;98117.83;;;;116439;1198;24985;-60
2022/04/14 11:47:12;;;;;;;;;11.75;10.50;;;25.60;98117.65;;;;116788;1198;24845;-55
2022/04/14 11:49:41;;;;;;;;;12.75;10.00;;;25.62;98115.92;;;;116749;1196;25650;-53
2022/04/14 11:52:11;;;;;;;;;12.50;12.00;;;25.61;98112.60;;;;116522;1197;25101;-56
2022/04/14 11:54:44;;;;;;;;;13.00;13.00;;;25.58;98108.30;;;;116695;1197;25409;-53
2022/04/14 11:57:31;;;;;;;;;12.33;9.67;;;25.57;98106.36;;;;116643;1197;25719;-51
2022/04/14 12:00:10;;;;;;;;;10.00;8.00;;;25.67;98107.02;;;;116619;1196;25216;-59
2022/04/14 12:02:52;;;;;;;;;12.25;11.50;;;25.68;98104.65;;;;116580;1196;25432;-58
2022/04/14 12:05:24;;;;;;;;;10.33;8.33;;;25.70;98103.67;;;;116594;1196;24877;-60
2022/04/14 12:08:07;;;;;;;;;12.75;9.00;;;25.70;98104.78;;;;116583;1196;25630;-57
2022/04/14 12:10:37;;;;;;;;;10.75;9.25;;;25.72;98094.09;;;;116683;1197;25663;-57
2022/04/14 12:13:08;;;;;;;;;12.33;9.33;;;25.72;98090.88;;;;116746;1198;25573;-58
2022/04/14 12:15:42;;;;;;;;;13.00;8.33;;;25.69;98095.78;;;;116745;1197;25354;-53